Pagina principale
METAR-TAF:

METAR-TAF

Aeroporti :

Aeroporto Internazionale di Nouakchott

Nouakchott, Mauritania

latitudine: 18-18-36N, longitudine: 015-58-11W, altezza: 3 m

Osservazione

Il bollettino è stato emesso 36 minuti fa, alle 05:30 UTC
Vento 5 kt da nord/nord-est
Temperature 13°C
Umidità 77%
Pressione 1014 hPa
Visibilità: 8000 m

METAR: GQNO 210530Z 02005KT 8000 NSC 13/09 Q1014 NOSIG

Ora: 06:06 (06:06 UTC)

Previsione

Il bollettino è stato emesso 1 ora e 6 minuti fa, alle 05:00 UTC
Previsione valida dal 21 alle 06 UTC al 22 alle 12 UTC
Vento 10 kt da est/nord-est
Visibilità: 8000 m
Evoluzione graduale
dal 21 alle 15 UTC al 21 alle 19 UTC
Vento 8 kt da nord/nord-ovest
Evoluzione graduale
dal 22 alle 04 UTC al 22 alle 08 UTC
Vento 10 kt da est

TAF: GQNO 210500Z 2106/2212 06010KT 8000 NSC BECMG 2115/2119 34008KT BECMG 2204/2208 08010KT

Osservazioni e previsioni meteorologiche di più di 4000 aeroporti (messaggi METAR e TAF).

Le stazioni disponibili sono rappresentate dai dischi gialli e rossi sulla carta.

Puntare il mouse per vedere il nome della stazione.

Clicca sopra per visualizzare le osservazioni e previsioni meteorologiche.

Per cambiare la mappa : fare clic sui pulsanti verdi con una croce nera per ingrandire, il pulsante verde con un trattino per diminuire, o sulla freccia verde per le mappe adiacenti.


METAR-TAF: